Time;durP1;ratioP1;P1;durP2;ratioP2;P2;SDS_P1;SDS_P2;PMS_P1;PMS_P2;Temp;Humidity;BMP_temperature;BMP_pressure;BME280_temperature;BME280_humidity;BME280_pressure;Samples;Min_cycle;Max_cycle;Signal;HPM_P1;HPM_P2
2022/01/08 00:00:34;;;;;;;;;0.00;0.00;;;;;6.26;66.67;100848.06;4958230;28;45634;-53
2022/01/08 00:02:59;;;;;;;;;0.00;0.00;;;;;6.42;67.64;100874.38;4976275;28;46120;-54
2022/01/08 00:05:25;;;;;;;;;0.00;0.00;;;;;6.29;67.49;100864.03;4976918;28;45355;-58
2022/01/08 00:07:50;;;;;;;;;0.00;0.00;;;;;6.36;67.28;100891.44;4958800;28;45475;-54
2022/01/08 00:10:16;;;;;;;;;0.00;0.00;;;;;6.36;67.88;100884.09;4977431;28;45411;-55
2022/01/08 00:12:42;;;;;;;;;0.00;0.00;;;;;6.29;67.06;100885.84;4958964;28;46798;-58
2022/01/08 00:15:08;;;;;;;;;0.00;0.00;;;;;6.33;67.79;100905.41;4976258;28;45439;-51
2022/01/08 00:17:34;;;;;;;;;0.00;0.00;;;;;6.24;67.44;100901.88;4976330;28;45518;-51
2022/01/08 00:20:00;;;;;;;;;0.00;0.00;;;;;6.22;66.98;100915.72;4959259;28;45323;-55
2022/01/08 00:22:25;;;;;;;;;0.50;0.00;;;;;6.25;66.91;100922.69;4976256;28;45922;-49
2022/01/08 00:24:52;;;;;;;;;0.00;0.00;;;;;6.22;66.87;100917.59;4976336;28;45259;-55
2022/01/08 00:27:19;;;;;;;;;0.00;0.00;;;;;6.10;67.90;100908.97;4975047;28;45284;-54
2022/01/08 00:29:45;;;;;;;;;0.00;0.00;;;;;6.18;67.52;100919.81;4976491;28;45538;-53
2022/01/08 00:32:10;;;;;;;;;0.00;0.00;;;;;6.13;67.29;100919.50;4975075;28;45404;-51
2022/01/08 00:34:36;;;;;;;;;0.00;0.00;;;;;6.14;67.29;100921.19;4976526;28;45272;-52
2022/01/08 00:37:02;;;;;;;;;0.00;0.00;;;;;5.89;68.07;100872.25;4976284;28;45444;-50
2022/01/08 00:39:27;;;;;;;;;2.00;0.00;;;;;6.14;68.25;100920.34;4976807;28;45597;-51
2022/01/08 00:41:54;;;;;;;;;0.00;0.00;;;;;6.15;67.56;100919.31;4976111;28;46056;-54
2022/01/08 00:44:20;;;;;;;;;0.00;0.00;;;;;5.90;67.79;100901.19;4976448;28;45309;-51
2022/01/08 00:46:47;;;;;;;;;1.00;0.00;;;;;6.09;68.43;100943.53;4974546;28;45370;-54
2022/01/08 00:49:12;;;;;;;;;0.00;0.00;;;;;6.11;68.56;100943.38;4976288;28;45449;-55
2022/01/08 00:51:38;;;;;;;;;0.00;0.00;;;;;6.12;68.77;100944.22;4974505;28;45784;-53
2022/01/08 00:54:03;;;;;;;;;0.00;0.00;;;;;6.08;68.23;100955.47;4975882;28;45348;-49
2022/01/08 00:56:29;;;;;;;;;1.00;1.00;;;;;6.07;68.00;100955.63;4975052;28;45422;-54
2022/01/08 00:58:54;;;;;;;;;0.00;0.00;;;;;6.06;68.12;100962.13;4958962;28;45615;-49
2022/01/08 01:01:20;;;;;;;;;2.00;0.00;;;;;5.89;68.44;100943.09;4976473;28;46494;-53
2022/01/08 01:03:45;;;;;;;;;0.00;0.00;;;;;5.96;69.08;100952.25;4976038;28;45362;-52
2022/01/08 01:06:11;;;;;;;;;0.00;0.00;;;;;6.00;69.27;100966.38;4975885;28;45427;-52
2022/01/08 01:08:36;;;;;;;;;0.00;0.00;;;;;5.40;69.12;100867.84;4975940;28;45443;-54
2022/01/08 01:11:02;;;;;;;;;1.25;0.25;;;;;5.78;69.59;100936.16;4975173;28;45412;-54
2022/01/08 01:13:27;;;;;;;;;1.00;1.00;;;;;6.00;69.02;100980.00;4974943;28;45406;-51
2022/01/08 01:15:53;;;;;;;;;1.00;1.00;;;;;6.01;68.98;100981.69;4942059;28;45383;-50
2022/01/08 01:18:18;;;;;;;;;0.50;0.50;;;;;5.49;69.04;100899.47;4975252;28;45448;-52
2022/01/08 01:20:44;;;;;;;;;3.25;1.25;;;;;6.02;69.46;100971.66;4975701;28;46197;-49
2022/01/08 01:23:18;;;;;;;;;0.00;0.00;;;;;5.80;68.63;100938.69;4975402;28;45348;-50
2022/01/08 01:25:51;;;;;;;;;0.00;0.00;;;;;5.99;68.28;100972.00;4975661;28;45256;-51
2022/01/08 01:28:39;;;;;;;;;3.60;0.00;;;;;5.84;68.29;100959.09;4959065;28;45449;-51
2022/01/08 01:47:04;;;;;;;;;2.00;0.60;;;;;6.00;68.26;100977.28;4976016;28;45260;-53
2022/01/08 01:49:46;;;;;;;;;1.00;1.00;;;;;5.96;68.10;100973.19;4975435;28;45614;-53
2022/01/08 01:52:15;;;;;;;;;0.00;0.00;;;;;5.83;68.39;100952.78;4943108;28;47529;-55
2022/01/08 01:54:41;;;;;;;;;1.00;1.00;;;;;5.94;68.34;100977.97;4975061;28;45383;-54
2022/01/08 01:57:08;;;;;;;;;2.00;1.00;;;;;5.95;67.54;100983.25;4975514;28;45209;-57
2022/01/08 01:59:34;;;;;;;;;1.60;0.60;;;;;5.74;67.80;100942.97;4975100;28;45854;-51
2022/01/08 02:01:59;;;;;;;;;0.00;0.00;;;;;5.94;68.16;100973.34;4958124;28;47059;-54
2022/01/08 02:04:25;;;;;;;;;0.50;0.50;;;;;5.72;67.72;100939.56;4941433;28;45658;-52
2022/01/08 02:06:51;;;;;;;;;1.60;0.00;;;;;6.00;68.18;100984.59;4974933;28;45414;-53
2022/01/08 02:09:17;;;;;;;;;0.25;0.00;;;;;5.95;67.30;100975.09;4941701;28;45587;-55
2022/01/08 02:11:58;;;;;;;;;0.00;0.00;;;;;6.00;68.26;100979.13;4975106;28;46273;-52
2022/01/08 02:14:24;;;;;;;;;0.20;0.20;;;;;5.91;66.40;100971.00;4975198;28;45230;-48
2022/01/08 02:16:50;;;;;;;;;0.00;0.00;;;;;5.91;67.55;100978.31;4974902;28;45372;-52
2022/01/08 02:19:15;;;;;;;;;0.00;0.00;;;;;5.92;67.12;100972.69;4975198;28;45408;-52
2022/01/08 02:21:54;;;;;;;;;0.50;0.50;;;;;5.76;67.94;100957.25;4974971;28;45368;-50
2022/01/08 02:24:20;;;;;;;;;0.20;0.20;;;;;5.88;67.30;100982.25;4976653;28;45684;-53
2022/01/08 02:26:45;;;;;;;;;0.00;0.00;;;;;5.83;66.94;100981.94;4978480;28;45416;-55
2022/01/08 02:29:17;;;;;;;;;0.75;0.75;;;;;5.86;68.21;100988.91;4978492;28;45238;-53
2022/01/08 02:32:06;;;;;;;;;0.20;0.20;;;;;5.86;67.84;100989.75;4977825;28;45488;-51
2022/01/08 02:34:32;;;;;;;;;1.00;1.00;;;;;5.89;66.95;100991.25;4978168;28;45284;-51
2022/01/08 02:36:58;;;;;;;;;0.75;0.75;;;;;5.74;67.86;100964.75;4960572;28;45348;-53
2022/01/08 02:39:24;;;;;;;;;1.00;1.00;;;;;5.88;66.71;100989.56;4978310;28;45177;-56
2022/01/08 02:41:54;;;;;;;;;3.00;3.00;;;;;5.80;66.86;100979.53;4976384;28;47084;-51
2022/01/08 02:44:20;;;;;;;;;2.00;0.00;;;;;5.87;67.22;100988.72;4977670;28;45366;-53
2022/01/08 02:46:45;;;;;;;;;0.75;0.00;;;;;5.90;67.44;100992.97;4978408;28;45462;-56
2022/01/08 02:49:11;;;;;;;;;0.25;0.25;;;;;5.84;67.15;100992.63;4976836;28;45310;-54
2022/01/08 02:51:37;;;;;;;;;3.00;3.00;;;;;5.86;67.25;100986.19;4977866;28;45332;-51
2022/01/08 02:54:08;;;;;;;;;0.00;0.00;;;;;5.76;66.84;100973.59;4977533;28;45237;-49
2022/01/08 02:56:38;;;;;;;;;0.80;0.00;;;;;5.80;68.58;100996.75;4977827;28;45410;-50
2022/01/08 02:59:04;;;;;;;;;4.00;3.00;;;;;5.79;67.52;101016.84;4956326;28;45449;-49
2022/01/08 03:01:29;;;;;;;;;0.75;0.75;;;;;5.80;67.31;101013.09;4941587;28;46507;-54
2022/01/08 03:03:57;;;;;;;;;0.00;0.00;;;;;5.78;67.78;101006.97;4940481;28;45439;-52
2022/01/08 03:06:23;;;;;;;;;1.80;0.20;;;;;5.68;67.58;100987.22;4957863;28;45419;-50
2022/01/08 03:08:49;;;;;;;;;3.80;0.80;;;;;5.57;67.96;100966.66;4962593;28;45567;-52
2022/01/08 03:11:14;;;;;;;;;1.50;0.00;;;;;5.77;68.04;101002.53;4975299;28;45507;-50
2022/01/08 03:13:40;;;;;;;;;0.50;0.50;;;;;5.73;66.66;100997.59;4975460;28;45567;-52
2022/01/08 03:16:05;;;;;;;;;0.75;0.00;;;;;5.62;67.12;100993.38;4995069;28;45357;-56
2022/01/08 03:18:32;;;;;;;;;0.00;0.00;;;;;5.66;67.28;101000.19;4994551;28;45699;-51
2022/01/08 03:21:12;;;;;;;;;0.00;0.00;;;;;5.66;68.11;101003.75;4978639;28;45479;-51
2022/01/08 03:23:44;;;;;;;;;0.00;0.00;;;;;5.65;67.76;100993.03;4977160;28;45523;-54
2022/01/08 03:26:10;;;;;;;;;4.80;0.80;;;;;5.63;68.24;100995.94;4961078;28;45402;-49
2022/01/08 03:28:35;;;;;;;;;0.00;0.00;;;;;5.63;68.28;100985.03;4977360;28;45551;-52
2022/01/08 03:31:01;;;;;;;;;1.00;1.00;;;;;5.50;67.97;100963.78;4977361;28;45550;-53
2022/01/08 03:33:26;;;;;;;;;0.50;0.50;;;;;5.65;68.17;100977.53;4976609;28;45569;-52
2022/01/08 03:35:52;;;;;;;;;1.00;1.00;;;;;5.63;68.50;100979.59;4974904;28;45431;-55
2022/01/08 03:38:17;;;;;;;;;1.00;1.00;;;;;5.66;67.85;100978.41;4977168;28;45387;-52
2022/01/08 03:40:43;;;;;;;;;0.00;0.00;;;;;5.63;67.56;100974.16;4975776;28;46293;-49
2022/01/08 03:43:08;;;;;;;;;0.00;0.00;;;;;5.61;67.20;100978.06;4976356;28;45364;-55
2022/01/08 03:45:34;;;;;;;;;2.00;2.00;;;;;5.68;68.13;100989.97;4976862;28;45450;-53
2022/01/08 03:48:26;;;;;;;;;1.00;1.00;;;;;5.47;67.71;100950.53;4992286;28;45262;-55
2022/01/08 03:50:51;;;;;;;;;0.00;0.00;;;;;5.62;68.01;100988.78;4976559;28;45470;-52
2022/01/08 03:53:17;;;;;;;;;0.75;0.00;;;;;5.66;67.49;100994.75;4975454;28;45508;-53
2022/01/08 03:55:42;;;;;;;;;0.00;0.00;;;;;5.39;67.99;100955.97;4976267;28;45372;-52
2022/01/08 03:58:08;;;;;;;;;0.50;0.50;;;;;5.60;68.14;100989.97;4978787;28;45439;-51
2022/01/08 04:00:33;;;;;;;;;0.50;0.50;;;;;5.63;68.02;100987.75;4974696;28;47236;-56
2022/01/08 04:02:59;;;;;;;;;0.00;0.00;;;;;5.56;68.09;100973.97;4976976;28;45448;-51
2022/01/08 04:05:24;;;;;;;;;1.75;0.00;;;;;5.64;68.64;100970.41;4975103;28;45402;-52
2022/01/08 04:07:50;;;;;;;;;0.00;0.00;;;;;5.66;68.35;100972.94;4976646;28;45388;-50
2022/01/08 04:10:15;;;;;;;;;0.00;0.00;;;;;5.67;68.41;100977.38;4958828;28;46421;-52
2022/01/08 04:12:45;;;;;;;;;1.75;0.75;;;;;5.51;68.32;100954.56;4976296;28;45453;-53
2022/01/08 04:17:53;;;;;;;;;0.60;0.60;;;;;5.67;68.28;100996.44;4960196;28;45490;-53
2022/01/08 04:20:19;;;;;;;;;0.00;0.00;;;;;5.48;67.16;100964.97;4976130;28;45601;-53
2022/01/08 04:22:47;;;;;;;;;0.00;0.00;;;;;5.61;68.60;100984.34;4975765;28;45288;-53
2022/01/08 04:25:13;;;;;;;;;0.00;0.00;;;;;5.66;68.80;100978.41;4976100;28;45445;-52
2022/01/08 04:27:38;;;;;;;;;1.00;1.00;;;;;5.63;68.50;100987.75;4958719;28;45689;-52
2022/01/08 04:30:05;;;;;;;;;0.75;0.50;;;;;5.61;68.84;100975.34;4976003;28;46153;-56
2022/01/08 04:32:30;;;;;;;;;1.00;0.00;;;;;5.61;67.98;100984.34;4974589;28;45823;-54
2022/01/08 04:34:56;;;;;;;;;1.75;1.00;;;;;5.62;68.62;100980.63;4976308;28;45245;-56
2022/01/08 04:37:21;;;;;;;;;4.50;1.75;;;;;5.53;69.00;100963.44;4977230;28;45325;-53
2022/01/08 04:39:47;;;;;;;;;0.00;0.00;;;;;5.40;68.68;100944.06;4974332;28;45406;-50
2022/01/08 04:42:12;;;;;;;;;1.00;1.00;;;;;5.67;68.85;100977.38;4976321;28;45288;-57
2022/01/08 04:44:38;;;;;;;;;1.00;0.75;;;;;5.74;68.65;100972.06;4974658;28;45344;-48
2022/01/08 04:47:03;;;;;;;;;6.00;1.00;;;;;5.72;69.69;100968.66;4974478;28;45373;-49
2022/01/08 04:49:29;;;;;;;;;1.00;1.00;;;;;5.72;68.80;100977.69;4975809;28;46023;-54
2022/01/08 04:51:54;;;;;;;;;1.00;1.00;;;;;5.43;69.41;100933.69;4966874;28;45815;-54
2022/01/08 04:54:21;;;;;;;;;0.00;0.00;;;;;5.71;69.57;100984.16;4974509;28;45273;-49
2022/01/08 04:56:46;;;;;;;;;0.40;0.40;;;;;5.72;69.94;101001.34;4939915;28;45441;-55
2022/01/08 04:59:12;;;;;;;;;0.00;0.00;;;;;5.70;69.40;101009.69;4956948;28;48159;-54
2022/01/08 05:01:37;;;;;;;;;0.00;0.00;;;;;5.69;69.58;100997.09;4975045;28;45875;-51
2022/01/08 05:04:03;;;;;;;;;1.25;0.50;;;;;5.79;69.28;101016.84;4968296;28;45813;-55
2022/01/08 05:06:28;;;;;;;;;0.00;0.00;;;;;5.83;69.64;101018.19;4975469;28;45369;-52
2022/01/08 05:08:54;;;;;;;;;1.25;0.00;;;;;5.86;69.19;101018.88;4955774;28;45823;-53
2022/01/08 05:11:19;;;;;;;;;0.75;0.75;;;;;5.86;69.19;101022.44;4974503;28;45437;-51
2022/01/08 05:13:45;;;;;;;;;0.00;0.00;;;;;5.88;69.47;101023.13;4971938;28;45466;-49
2022/01/08 05:16:11;;;;;;;;;1.80;0.80;;;;;5.34;68.97;100922.97;4973502;28;45554;-52
2022/01/08 05:18:37;;;;;;;;;0.25;0.25;;;;;5.89;69.36;101013.91;4956298;28;46314;-51
2022/01/08 05:23:40;;;;;;;;;0.00;0.00;;;;;5.91;69.42;101002.81;4975507;28;45304;-51
2022/01/08 05:26:05;;;;;;;;;1.75;1.00;;;;;5.89;69.79;100994.84;4975094;28;45392;-55
2022/01/08 05:28:31;;;;;;;;;0.00;0.00;;;;;5.95;69.86;101005.06;4975895;28;45746;-51
2022/01/08 05:30:56;;;;;;;;;0.00;0.00;;;;;5.93;69.11;101000.81;4975694;28;45371;-50
2022/01/08 05:33:22;;;;;;;;;2.75;0.25;;;;;6.00;70.13;101009.09;4974082;28;45420;-56
2022/01/08 05:35:47;;;;;;;;;1.00;1.00;;;;;6.06;69.71;101003.84;4975347;28;45440;-54
2022/01/08 05:38:13;;;;;;;;;0.00;0.00;;;;;6.10;69.42;100988.84;4975143;28;45697;-50
2022/01/08 05:40:38;;;;;;;;;0.75;0.75;;;;;6.07;69.53;100970.13;4975137;28;45359;-54
2022/01/08 05:43:04;;;;;;;;;1.50;1.50;;;;;6.16;69.34;100984.56;4975265;28;45403;-54
2022/01/08 05:45:30;;;;;;;;;2.00;0.75;;;;;6.18;69.48;100987.97;4975653;28;45450;-51
2022/01/08 05:47:55;;;;;;;;;0.25;0.25;;;;;6.10;69.38;100964.31;4975386;28;45432;-50
2022/01/08 05:50:21;;;;;;;;;2.50;0.25;;;;;6.22;69.34;100972.97;4973870;28;45354;-50
2022/01/08 05:52:48;;;;;;;;;2.00;2.00;;;;;6.26;69.43;100978.03;4975260;28;45267;-50
2022/01/08 05:55:14;;;;;;;;;1.00;0.40;;;;;6.28;69.13;100971.38;4957733;28;45482;-53
2022/01/08 05:57:40;;;;;;;;;0.60;0.60;;;;;6.28;69.35;100965.06;4958371;28;46236;-51
2022/01/08 06:00:07;;;;;;;;;0.50;0.00;;;;;6.30;69.76;100972.06;4980724;28;45294;-49
2022/01/08 06:02:32;;;;;;;;;0.80;0.00;;;;;6.31;69.71;100959.28;4957984;28;45472;-51
2022/01/08 06:04:58;;;;;;;;;0.00;0.00;;;;;6.30;69.81;100965.75;4960346;28;45561;-54
2022/01/08 06:07:23;;;;;;;;;0.25;0.00;;;;;6.16;69.41;100951.00;4960415;28;47292;-54
2022/01/08 06:09:49;;;;;;;;;0.00;0.00;;;;;6.37;69.96;100981.22;4978665;28;45367;-50
2022/01/08 06:12:15;;;;;;;;;0.00;0.00;;;;;6.36;69.84;100984.97;4960782;28;45431;-50
2022/01/08 06:14:40;;;;;;;;;0.25;0.25;;;;;6.38;70.33;100973.91;4961518;28;45294;-48
2022/01/08 06:17:06;;;;;;;;;1.50;0.75;;;;;6.36;69.26;100989.59;4978467;28;45259;-49
2022/01/08 06:19:32;;;;;;;;;0.00;0.00;;;;;6.32;70.07;100980.06;4977996;28;45398;-51
2022/01/08 06:21:58;;;;;;;;;2.40;0.00;;;;;6.14;70.39;100933.97;4961468;28;45378;-49
2022/01/08 06:24:24;;;;;;;;;0.00;0.00;;;;;6.31;69.74;100964.72;4977784;28;46117;-56
2022/01/08 06:26:49;;;;;;;;;2.00;0.00;;;;;6.31;70.39;100957.41;4961449;28;45643;-50
2022/01/08 06:29:15;;;;;;;;;0.00;0.00;;;;;6.31;70.30;100953.81;4978564;28;45391;-51
2022/01/08 06:31:40;;;;;;;;;1.00;1.00;;;;;6.28;70.04;100957.75;4977890;28;45623;-48
2022/01/08 06:34:06;;;;;;;;;1.00;1.00;;;;;6.27;69.91;100953.34;4978443;28;45781;-51
2022/01/08 06:36:31;;;;;;;;;0.00;0.00;;;;;6.26;69.73;100965.28;4977688;28;46683;-49
2022/01/08 06:38:57;;;;;;;;;0.00;0.00;;;;;6.04;70.08;100923.31;4978398;28;45360;-50
2022/01/08 06:41:22;;;;;;;;;1.75;1.00;;;;;6.07;70.28;100926.53;4960721;28;45391;-53
2022/01/08 06:43:48;;;;;;;;;2.50;0.00;;;;;6.29;70.51;100954.00;4977378;28;45376;-51
2022/01/08 06:46:13;;;;;;;;;0.00;0.00;;;;;6.29;70.34;100951.28;4960391;28;46123;-53
2022/01/08 06:48:40;;;;;;;;;4.25;1.00;;;;;6.28;69.71;100943.25;4960023;28;45411;-54
2022/01/08 06:51:05;;;;;;;;;1.00;1.00;;;;;6.27;70.13;100942.44;4944449;28;45240;-51
2022/01/08 06:53:31;;;;;;;;;1.75;1.75;;;;;6.26;70.48;100943.47;4978097;28;45204;-50
2022/01/08 06:55:57;;;;;;;;;0.25;0.00;;;;;6.25;70.10;100939.06;4977807;28;45722;-56
2022/01/08 06:58:25;;;;;;;;;0.00;0.00;;;;;6.24;69.88;100943.63;4960057;28;45456;-54
2022/01/08 07:00:50;;;;;;;;;1.40;1.40;;;;;6.00;70.47;100911.00;4977429;28;45270;-53
2022/01/08 07:03:16;;;;;;;;;3.50;1.00;;;;;6.16;70.73;100943.69;4960446;28;45503;-51
2022/01/08 07:05:42;;;;;;;;;1.00;1.00;;;;;6.18;70.19;100941.63;4976156;28;45591;-53
2022/01/08 07:08:08;;;;;;;;;1.25;1.25;;;;;5.78;70.71;100876.22;4977656;28;45397;-54
2022/01/08 07:10:33;;;;;;;;;1.00;1.00;;;;;6.20;70.49;100934.09;4977405;28;45379;-51
2022/01/08 07:12:59;;;;;;;;;1.00;1.00;;;;;6.21;70.98;100929.53;4977423;28;45611;-54
2022/01/08 07:15:25;;;;;;;;;1.00;1.00;;;;;6.20;70.08;100931.38;4977118;28;46525;-51
2022/01/08 07:17:50;;;;;;;;;2.00;1.00;;;;;6.06;70.41;100903.03;4977492;28;45391;-51
2022/01/08 07:20:16;;;;;;;;;2.50;1.00;;;;;6.20;70.85;100920.47;4978319;28;45567;-53
2022/01/08 07:22:41;;;;;;;;;0.00;0.00;;;;;5.97;70.91;100884.97;4977822;28;45746;-51
2022/01/08 07:25:07;;;;;;;;;5.00;4.50;;;;;5.97;70.08;100882.25;4977077;28;45812;-51
2022/01/08 07:27:33;;;;;;;;;1.20;1.20;;;;;6.17;70.56;100904.50;4977239;28;45685;-54
2022/01/08 07:30:03;;;;;;;;;5.00;4.50;;;;;6.20;71.43;100898.66;4959394;28;45304;-51
2022/01/08 07:32:28;;;;;;;;;3.80;3.80;;;;;6.22;71.51;100896.63;4977235;28;45415;-49
2022/01/08 07:34:54;;;;;;;;;2.00;2.00;;;;;5.88;71.08;100829.69;4976849;28;45406;-53
2022/01/08 07:37:19;;;;;;;;;8.00;4.00;;;;;6.20;71.15;100871.41;4976795;28;45379;-52
2022/01/08 07:39:45;;;;;;;;;5.00;1.25;;;;;6.25;71.18;100881.81;4975539;28;45491;-51
2022/01/08 07:42:10;;;;;;;;;7.00;2.00;;;;;6.13;70.92;100872.34;4976894;28;45506;-48
2022/01/08 07:44:36;;;;;;;;;2.75;1.50;;;;;6.23;70.76;100883.84;4975106;28;46354;-54
2022/01/08 07:47:02;;;;;;;;;5.00;1.00;;;;;6.29;71.42;100888.56;4976654;28;45712;-52
2022/01/08 07:49:27;;;;;;;;;4.50;2.50;;;;;6.31;70.83;100899.31;4977160;28;45229;-47
2022/01/08 07:51:53;;;;;;;;;2.00;2.00;;;;;6.14;70.64;100861.22;4975818;28;45649;-53
2022/01/08 07:54:18;;;;;;;;;6.00;5.00;;;;;6.23;71.71;100886.56;4976876;28;45933;-53
2022/01/08 07:56:43;;;;;;;;;4.75;2.50;;;;;6.24;71.17;100883.66;4976594;28;45455;-52
2022/01/08 07:59:09;;;;;;;;;5.00;2.00;;;;;6.22;71.25;100873.97;4944114;28;45935;-53
2022/01/08 08:01:35;;;;;;;;;3.25;2.50;;;;;6.32;71.31;100884.63;4969520;28;45538;-49
2022/01/08 08:04:00;;;;;;;;;3.25;2.00;;;;;6.31;71.46;100880.22;4976675;28;45209;-48
2022/01/08 08:06:26;;;;;;;;;1.00;1.00;;;;;6.33;71.57;100868.09;4976316;28;45400;-55
2022/01/08 08:08:51;;;;;;;;;1.50;1.50;;;;;6.34;71.58;100871.66;4976830;28;45455;-50
2022/01/08 08:11:17;;;;;;;;;2.50;2.00;;;;;6.35;71.77;100870.66;4976970;28;45316;-51
2022/01/08 08:13:42;;;;;;;;;4.75;2.00;;;;;6.42;71.76;100865.31;4953283;28;46388;-52
2022/01/08 08:16:08;;;;;;;;;1.75;1.25;;;;;6.41;71.97;100858.19;4936501;28;45565;-53
2022/01/08 08:18:33;;;;;;;;;3.50;2.75;;;;;6.16;72.19;100826.50;4972756;28;45785;-52
2022/01/08 08:20:59;;;;;;;;;4.25;3.25;;;;;6.45;72.05;100862.25;4971046;28;45483;-51
2022/01/08 08:23:24;;;;;;;;;7.00;3.00;;;;;6.43;72.16;100853.38;4954435;28;45694;-50
2022/01/08 08:25:50;;;;;;;;;5.25;3.25;;;;;6.45;71.97;100854.91;4954912;28;45809;-52
2022/01/08 08:28:15;;;;;;;;;4.00;4.00;;;;;6.42;72.54;100849.81;4954300;28;45484;-51
2022/01/08 08:30:41;;;;;;;;;3.75;3.00;;;;;6.45;72.69;100843.16;4923930;28;45506;-53
2022/01/08 08:33:07;;;;;;;;;5.20;3.60;;;;;6.47;72.98;100841.09;4937255;28;45459;-49
2022/01/08 08:35:33;;;;;;;;;2.00;2.00;;;;;6.49;73.41;100825.38;4971797;28;45538;-49
2022/01/08 08:37:59;;;;;;;;;4.20;4.20;;;;;6.27;73.65;100792.50;4972193;28;45799;-53
2022/01/08 08:40:24;;;;;;;;;9.00;6.00;;;;;5.97;74.01;100737.84;4954340;28;45368;-52
2022/01/08 08:42:50;;;;;;;;;6.00;3.50;;;;;6.53;73.57;100814.97;4971927;28;45375;-56
2022/01/08 08:45:15;;;;;;;;;6.00;4.75;;;;;6.54;74.76;100806.59;4952886;28;45379;-55
2022/01/08 08:47:41;;;;;;;;;5.00;5.00;;;;;6.24;74.80;100766.47;4971640;28;45517;-51
2022/01/08 08:50:08;;;;;;;;;2.00;2.00;;;;;5.76;75.17;100681.31;4954824;28;45516;-51
2022/01/08 08:52:33;;;;;;;;;7.80;4.20;;;;;6.55;75.11;100800.09;4973771;28;46728;-52
2022/01/08 08:54:59;;;;;;;;;10.25;4.50;;;;;6.55;74.65;100780.19;4974127;28;45418;-49
2022/01/08 08:57:25;;;;;;;;;4.25;4.25;;;;;6.61;75.03;100788.47;4970624;28;45442;-53
2022/01/08 08:59:51;;;;;;;;;9.00;4.00;;;;;6.59;75.78;100785.09;4920785;28;45978;-53
2022/01/08 09:02:16;;;;;;;;;10.20;5.60;;;;;6.63;75.18;100788.28;4968590;28;45680;-56
2022/01/08 09:04:43;;;;;;;;;10.25;5.25;;;;;6.73;75.13;100801.66;4917423;28;45499;-56
2022/01/08 09:07:08;;;;;;;;;5.20;5.00;;;;;6.78;75.32;100796.50;4951423;28;45384;-56
2022/01/08 09:09:34;;;;;;;;;9.00;5.75;;;;;6.81;77.27;100787.06;4950850;28;45541;-49
2022/01/08 09:12:00;;;;;;;;;5.00;5.00;;;;;6.70;76.43;100750.19;4952405;28;45422;-48
2022/01/08 09:14:25;;;;;;;;;6.50;5.00;;;;;6.89;76.60;100781.56;4951011;28;45401;-50
2022/01/08 09:16:58;;;;;;;;;3.50;3.50;;;;;6.89;75.96;100785.13;4933822;28;45939;-50
2022/01/08 09:19:23;;;;;;;;;5.80;5.80;;;;;6.89;76.27;100770.66;4952095;28;45941;-50
2022/01/08 09:21:49;;;;;;;;;8.00;5.75;;;;;6.95;76.16;100761.72;4950246;28;46995;-48
2022/01/08 09:24:15;;;;;;;;;9.00;6.25;;;;;6.94;75.69;100750.97;4949087;28;45508;-51
2022/01/08 09:26:41;;;;;;;;;3.75;3.75;;;;;6.70;75.85;100701.09;4950515;28;45494;-52
2022/01/08 09:29:06;;;;;;;;;6.25;5.00;;;;;7.01;75.64;100746.47;4951074;28;45629;-51
2022/01/08 09:31:32;;;;;;;;;6.25;5.00;;;;;7.16;76.00;100755.47;4951826;28;45679;-48
2022/01/08 09:33:58;;;;;;;;;8.20;5.20;;;;;7.22;75.84;100753.03;4953869;28;45494;-48
2022/01/08 09:36:24;;;;;;;;;3.00;3.00;;;;;7.00;75.62;100712.84;4953703;28;45571;-49
2022/01/08 09:38:49;;;;;;;;;6.75;5.00;;;;;7.33;76.02;100755.28;4955404;28;45751;-47
2022/01/08 09:41:16;;;;;;;;;6.75;3.00;;;;;7.31;76.18;100743.72;4954199;28;45584;-52
2022/01/08 09:43:41;;;;;;;;;7.20;5.40;;;;;7.33;76.22;100739.75;4954843;28;45493;-53
2022/01/08 09:46:07;;;;;;;;;4.00;2.75;;;;;7.40;76.79;100739.84;4955160;28;45389;-49
2022/01/08 09:48:32;;;;;;;;;5.25;4.00;;;;;7.23;76.54;100703.72;4955188;28;45452;-52
2022/01/08 09:50:58;;;;;;;;;11.00;7.00;;;;;7.34;77.08;100729.69;4953115;28;48321;-49
2022/01/08 09:53:23;;;;;;;;;7.00;5.00;;;;;7.42;76.57;100731.47;4953618;28;45430;-50
2022/01/08 09:55:49;;;;;;;;;7.50;7.00;;;;;7.49;76.76;100724.19;4954849;28;45534;-49
2022/01/08 09:58:15;;;;;;;;;6.00;5.00;;;;;7.49;77.14;100709.69;4927817;28;45573;-54
2022/01/08 10:00:41;;;;;;;;;2.00;2.00;;;;;6.99;77.15;100621.09;4974934;28;46263;-51
2022/01/08 10:03:19;;;;;;;;;5.20;5.00;;;;;7.57;76.98;100710.41;4974873;28;45493;-50
2022/01/08 10:05:51;;;;;;;;;4.80;4.60;;;;;7.63;77.05;100688.84;4973283;28;45593;-49
2022/01/08 10:08:28;;;;;;;;;4.40;4.40;;;;;7.65;77.46;100682.13;4974819;28;45520;-49
2022/01/08 10:10:58;;;;;;;;;8.20;6.60;;;;;7.11;77.17;100596.91;4974503;28;46882;-50
2022/01/08 10:13:32;;;;;;;;;7.80;6.00;;;;;7.73;77.05;100681.16;4973743;28;45495;-51
2022/01/08 10:18:43;;;;;;;;;9.40;5.00;;;;;7.47;77.50;100617.00;4974611;28;45820;-49
2022/01/08 10:21:27;;;;;;;;;7.40;6.20;;;;;7.82;76.96;100671.78;4974170;28;46516;-52
2022/01/08 10:23:57;;;;;;;;;10.40;6.00;;;;;7.86;77.21;100673.06;4974460;28;45452;-48
2022/01/08 10:26:25;;;;;;;;;8.00;5.00;;;;;7.81;77.48;100652.84;4973667;28;45414;-50
2022/01/08 10:28:54;;;;;;;;;7.40;5.60;;;;;7.90;77.30;100653.56;4955699;28;45904;-49
2022/01/08 10:31:24;;;;;;;;;4.20;2.40;;;;;7.95;78.66;100649.19;4956128;28;47052;-50
2022/01/08 10:33:50;;;;;;;;;5.00;5.00;;;;;8.02;77.98;100648.41;4973690;28;45431;-47
2022/01/08 10:36:36;;;;;;;;;5.00;2.00;;;;;7.96;77.61;100631.75;4973582;28;45343;-48
2022/01/08 10:39:09;;;;;;;;;8.80;4.00;;;;;7.95;77.87;100640.16;4973103;28;45905;-49
2022/01/08 10:41:42;;;;;;;;;3.60;3.40;;;;;7.68;78.12;100590.75;4972950;28;46478;-49
2022/01/08 10:44:18;;;;;;;;;6.20;5.60;;;;;7.90;78.20;100627.06;4973170;28;45369;-50
2022/01/08 10:47:05;;;;;;;;;5.80;3.00;;;;;7.94;78.30;100619.31;4973492;28;45437;-48
2022/01/08 10:49:44;;;;;;;;;9.40;4.20;;;;;7.96;78.53;100620.00;4973860;28;45531;-50
2022/01/08 10:52:17;;;;;;;;;5.40;5.40;;;;;7.95;78.74;100608.19;4973359;28;45777;-47
2022/01/08 10:54:44;;;;;;;;;9.60;6.00;;;;;7.94;78.67;100594.72;4972471;28;45492;-48
2022/01/08 10:57:12;;;;;;;;;6.80;5.20;;;;;7.73;79.09;100553.59;4955923;28;45449;-47
2022/01/08 10:59:38;;;;;;;;;6.00;5.20;;;;;7.92;78.91;100578.56;4933682;28;45597;-47
2022/01/08 11:02:14;;;;;;;;;6.40;5.00;;;;;7.96;78.87;100573.53;4972899;28;45550;-47
2022/01/08 11:04:45;;;;;;;;;3.40;2.40;;;;;7.97;78.72;100570.59;4954677;28;45570;-48
2022/01/08 11:07:15;;;;;;;;;10.20;5.40;;;;;7.96;78.75;100562.59;4973183;28;45559;-47
2022/01/08 11:09:41;;;;;;;;;9.00;5.60;;;;;7.82;78.95;100535.16;4973619;28;45685;-48
2022/01/08 11:12:16;;;;;;;;;9.40;5.00;;;;;8.03;78.98;100562.63;4973293;28;45939;-49
2022/01/08 11:17:23;;;;;;;;;5.60;4.20;;;;;8.05;78.89;100539.53;4972261;28;45534;-48
2022/01/08 11:19:59;;;;;;;;;6.20;5.20;;;;;7.98;79.34;100517.63;4973735;28;45446;-52
2022/01/08 11:22:26;;;;;;;;;9.80;7.00;;;;;8.11;78.28;100529.69;4973085;28;46446;-47
2022/01/08 11:25:02;;;;;;;;;8.80;6.20;;;;;8.13;78.86;100524.84;4973274;28;45398;-53
2022/01/08 11:27:44;;;;;;;;;8.40;5.00;;;;;8.14;78.61;100521.06;4971515;28;45754;-52
2022/01/08 11:30:22;;;;;;;;;5.80;3.00;;;;;8.18;78.89;100516.03;4972575;28;45526;-47
2022/01/08 11:32:49;;;;;;;;;7.00;3.80;;;;;8.17;78.76;100504.25;4957379;28;48146;-49
2022/01/08 11:35:15;;;;;;;;;4.60;4.60;;;;;8.01;78.76;100469.91;4973311;28;45442;-48
2022/01/08 11:37:47;;;;;;;;;6.80;3.80;;;;;8.17;78.87;100495.22;4972642;28;45570;-49
2022/01/08 11:40:14;;;;;;;;;7.40;5.00;;;;;7.73;78.60;100403.34;4973567;28;45545;-47
2022/01/08 11:42:40;;;;;;;;;6.60;6.00;;;;;8.25;78.50;100468.56;4971718;28;45923;-48
2022/01/08 11:45:07;;;;;;;;;4.50;2.00;;;;;8.26;78.63;100461.19;4974170;28;45349;-54
2022/01/08 11:47:33;;;;;;;;;4.20;4.20;;;;;8.28;78.36;100454.47;4955918;28;45531;-49
2022/01/08 11:49:59;;;;;;;;;6.50;4.00;;;;;8.28;78.25;100440.78;4955623;28;45616;-50
2022/01/08 11:52:24;;;;;;;;;8.00;6.80;;;;;8.28;78.47;100429.84;4955165;28;46769;-51
2022/01/08 11:54:52;;;;;;;;;6.75;5.50;;;;;8.27;78.37;100422.72;4971452;28;45486;-49
2022/01/08 11:57:22;;;;;;;;;3.00;3.00;;;;;8.26;78.46;100415.56;4972071;28;45396;-49
2022/01/08 11:59:49;;;;;;;;;8.00;6.00;;;;;8.23;78.44;100396.81;4938624;28;45410;-47